Time;durP1;ratioP1;P1;durP2;ratioP2;P2;SDS_P1;SDS_P2;PMS_P1;PMS_P2;Temp;Humidity;BMP_temperature;BMP_pressure;BME280_temperature;BME280_humidity;BME280_pressure;Samples;Min_cycle;Max_cycle;Signal;HPM_P1;HPM_P2
2021/09/11 00:00:58;;;;;;;10.83;9.93;;;18.40;99.90;;;;;;4863589;29;20229;-92
2021/09/11 00:03:24;;;;;;;10.70;9.80;;;18.60;99.90;;;;;;4872928;29;20470;-92
2021/09/11 00:05:50;;;;;;;10.63;9.80;;;18.60;99.90;;;;;;4880071;29;21062;-92
2021/09/11 00:08:15;;;;;;;11.53;10.50;;;18.70;99.90;;;;;;4869573;29;20189;-92
2021/09/11 00:10:41;;;;;;;11.03;10.10;;;18.70;99.90;;;;;;4867788;29;20194;-92
2021/09/11 00:13:07;;;;;;;11.20;10.20;;;18.70;99.90;;;;;;4867604;29;20185;-92
2021/09/11 00:15:33;;;;;;;11.50;10.50;;;18.70;99.90;;;;;;4867516;29;20185;-92
2021/09/11 00:18:00;;;;;;;11.77;10.77;;;18.60;99.90;;;;;;4871467;29;20193;-93
2021/09/11 00:20:26;;;;;;;11.97;11.07;;;18.60;99.90;;;;;;4868829;29;20323;-93
2021/09/11 00:22:51;;;;;;;12.80;11.80;;;18.70;99.90;;;;;;4870942;29;20454;-91
2021/09/11 00:25:17;;;;;;;11.90;10.90;;;18.70;99.90;;;;;;4868119;29;20837;-93
2021/09/11 00:27:43;;;;;;;12.57;11.53;;;18.60;99.90;;;;;;4869909;29;20698;-93
2021/09/11 00:30:09;;;;;;;12.93;11.93;;;18.50;99.90;;;;;;4871065;29;20296;-91
2021/09/11 00:32:35;;;;;;;12.70;11.70;;;18.50;99.90;;;;;;4878014;29;20194;-93
2021/09/11 00:35:01;;;;;;;12.77;11.67;;;18.50;99.90;;;;;;4885900;29;20465;-91
2021/09/11 00:37:27;;;;;;;12.30;11.20;;;18.40;99.90;;;;;;4866248;29;20277;-92
2021/09/11 00:39:53;;;;;;;13.63;12.40;;;18.40;99.90;;;;;;4868497;29;20549;-92
2021/09/11 00:42:18;;;;;;;14.97;13.40;;;18.30;99.90;;;;;;4867779;29;20648;-91
2021/09/11 00:44:44;;;;;;;14.43;13.23;;;18.40;99.90;;;;;;4870777;29;21125;-91
2021/09/11 00:47:10;;;;;;;14.03;12.83;;;18.40;99.90;;;;;;4862129;29;20209;-92
2021/09/11 00:49:35;;;;;;;13.63;12.53;;;18.40;99.90;;;;;;4865432;29;20214;-92
2021/09/11 00:52:02;;;;;;;14.33;13.13;;;18.30;99.90;;;;;;4880073;29;20198;-92
2021/09/11 00:54:28;;;;;;;14.10;12.90;;;18.30;99.90;;;;;;4867441;29;20290;-92
2021/09/11 00:56:55;;;;;;;15.10;13.80;;;18.40;99.90;;;;;;4866179;29;21059;-91
2021/09/11 00:59:22;;;;;;;14.50;13.03;;;18.30;99.90;;;;;;4880360;29;20482;-91
2021/09/11 01:01:48;;;;;;;14.23;12.93;;;18.40;99.90;;;;;;4884149;29;20449;-91
2021/09/11 01:04:14;;;;;;;13.10;12.00;;;18.30;99.90;;;;;;4864625;29;20217;-91
2021/09/11 01:06:40;;;;;;;12.93;11.70;;;18.30;99.90;;;;;;4862624;29;21185;-91
2021/09/11 01:09:06;;;;;;;12.67;11.67;;;18.30;99.90;;;;;;4867555;29;20200;-93
2021/09/11 01:11:33;;;;;;;13.37;12.00;;;18.30;99.90;;;;;;4867309;29;20473;-92
2021/09/11 01:13:59;;;;;;;12.50;11.20;;;18.20;99.90;;;;;;4869838;29;20747;-92
2021/09/11 01:16:25;;;;;;;11.50;10.60;;;18.20;99.90;;;;;;4870334;29;20450;-93
2021/09/11 01:18:51;;;;;;;11.97;11.00;;;18.20;99.90;;;;;;4869928;29;20194;-92
2021/09/11 01:21:17;;;;;;;12.17;11.17;;;18.20;99.90;;;;;;4867747;29;20457;-92
2021/09/11 01:23:42;;;;;;;12.67;11.57;;;18.20;99.90;;;;;;4867876;29;20205;-92
2021/09/11 01:26:12;;;;;;;12.83;11.83;;;18.20;99.90;;;;;;4868485;29;20493;-92
2021/09/11 01:31:13;;;;;;;12.00;11.00;;;18.20;99.90;;;;;;4870188;29;21212;-93
2021/09/11 01:33:46;;;;;;;11.37;10.37;;;18.20;99.90;;;;;;4866577;29;20457;-93
2021/09/11 01:36:12;;;;;;;11.40;10.30;;;18.20;99.90;;;;;;4862078;29;20476;-92
2021/09/11 01:38:37;;;;;;;11.70;10.70;;;18.20;99.90;;;;;;4869562;29;20530;-92
2021/09/11 01:41:03;;;;;;;11.27;10.27;;;18.20;99.90;;;;;;4870004;29;20197;-92
2021/09/11 01:43:34;;;;;;;11.80;10.70;;;18.20;99.90;;;;;;4869582;29;20217;-92
2021/09/11 01:46:00;;;;;;;11.57;10.57;;;18.20;99.90;;;;;;4870003;29;20236;-91
2021/09/11 01:48:29;;;;;;;11.40;10.33;;;18.10;99.90;;;;;;4866443;29;20450;-92
2021/09/11 01:50:55;;;;;;;11.80;10.70;;;18.10;99.90;;;;;;4882096;29;20796;-92
2021/09/11 01:53:21;;;;;;;11.07;10.17;;;18.10;99.90;;;;;;4865576;29;20507;-91
2021/09/11 01:55:47;;;;;;;11.30;10.40;;;18.10;99.90;;;;;;4868204;29;20462;-92
2021/09/11 01:58:15;;;;;;;11.17;9.97;;;18.10;99.90;;;;;;4867065;29;20524;-92
2021/09/11 02:00:40;;;;;;;11.60;10.57;;;18.10;99.90;;;;;;4863963;29;20454;-92
2021/09/11 02:03:19;;;;;;;10.57;9.70;;;18.10;99.90;;;;;;4879169;29;20468;-92
2021/09/11 02:05:46;;;;;;;10.23;9.43;;;18.10;99.90;;;;;;4883723;29;20225;-91
2021/09/11 02:08:26;;;;;;;10.17;9.30;;;18.20;99.90;;;;;;4868872;29;20451;-92
2021/09/11 02:10:52;;;;;;;11.03;10.00;;;18.10;99.90;;;;;;4865182;29;20457;-92
2021/09/11 02:13:26;;;;;;;10.23;9.33;;;18.20;99.90;;;;;;4867569;29;20476;-92
2021/09/11 02:15:54;;;;;;;10.13;9.23;;;18.20;99.90;;;;;;4865481;29;20453;-92
2021/09/11 02:18:19;;;;;;;9.83;8.93;;;18.20;99.90;;;;;;4868473;29;21032;-92
2021/09/11 02:20:45;;;;;;;10.30;9.40;;;18.20;99.90;;;;;;4868797;29;20465;-92
2021/09/11 02:23:10;;;;;;;10.27;9.47;;;18.20;99.90;;;;;;4866436;29;20193;-93
2021/09/11 02:25:38;;;;;;;11.00;10.10;;;18.10;99.90;;;;;;4866475;29;20672;-93
2021/09/11 02:28:04;;;;;;;10.10;9.30;;;18.10;99.90;;;;;;4867115;29;20234;-92
2021/09/11 02:30:29;;;;;;;11.03;9.93;;;18.00;99.90;;;;;;4864462;29;20484;-92
2021/09/11 02:32:55;;;;;;;10.80;9.90;;;18.00;99.90;;;;;;4868553;29;20705;-92
2021/09/11 02:35:23;;;;;;;9.97;9.10;;;18.00;99.90;;;;;;4884677;29;20288;-93
2021/09/11 02:37:52;;;;;;;11.10;10.10;;;18.00;99.90;;;;;;4865899;29;20201;-93
2021/09/11 02:40:18;;;;;;;10.20;9.30;;;18.00;99.90;;;;;;4866760;29;20518;-92
2021/09/11 02:42:43;;;;;;;11.13;10.17;;;18.00;99.90;;;;;;4867957;29;20533;-93
2021/09/11 02:45:11;;;;;;;10.20;9.40;;;18.00;99.90;;;;;;4866162;29;20277;-93
2021/09/11 02:47:46;;;;;;;10.27;9.30;;;18.00;99.90;;;;;;4863986;29;20456;-92
2021/09/11 02:50:15;;;;;;;9.73;8.93;;;18.00;99.90;;;;;;4868050;29;20191;-91
2021/09/11 02:52:43;;;;;;;10.80;9.80;;;17.90;99.90;;;;;;4866194;29;20482;-90
2021/09/11 02:55:09;;;;;;;10.20;9.30;;;18.00;99.90;;;;;;4865827;29;20477;-90
2021/09/11 02:57:38;;;;;;;10.30;9.50;;;18.00;99.90;;;;;;4862190;29;20217;-92
2021/09/11 03:00:04;;;;;;;9.70;8.80;;;18.00;99.90;;;;;;4884485;29;20236;-93
2021/09/11 03:02:30;;;;;;;9.90;9.20;;;18.00;99.90;;;;;;4867200;29;20466;-91
2021/09/11 03:05:02;;;;;;;10.00;9.10;;;18.00;99.90;;;;;;4863699;29;21214;-92
2021/09/11 03:07:28;;;;;;;10.60;9.63;;;18.00;99.90;;;;;;4868851;29;20201;-92
2021/09/11 03:09:54;;;;;;;10.60;9.60;;;18.00;99.90;;;;;;4871469;29;20853;-91
2021/09/11 03:12:19;;;;;;;10.37;9.47;;;18.00;99.90;;;;;;4867916;29;20220;-92
2021/09/11 03:14:45;;;;;;;9.73;8.93;;;18.10;99.90;;;;;;4883314;29;20186;-91
2021/09/11 03:17:11;;;;;;;9.97;9.17;;;18.10;99.90;;;;;;4865421;29;20279;-92
2021/09/11 03:19:36;;;;;;;9.90;9.00;;;18.00;99.90;;;;;;4865590;29;20641;-91
2021/09/11 03:22:02;;;;;;;10.20;9.30;;;18.00;99.90;;;;;;4866488;29;20668;-91
2021/09/11 03:24:30;;;;;;;9.80;8.83;;;17.90;99.90;;;;;;4868993;29;20422;-91
2021/09/11 03:26:56;;;;;;;9.20;8.50;;;18.00;99.90;;;;;;4867944;29;20228;-91
2021/09/11 03:29:21;;;;;;;10.57;9.67;;;17.90;99.90;;;;;;4872114;29;20450;-92
2021/09/11 03:31:47;;;;;;;9.70;8.90;;;18.00;99.90;;;;;;4869825;29;20805;-92
2021/09/11 03:34:13;;;;;;;10.10;9.20;;;17.90;99.90;;;;;;4878365;29;20280;-92
2021/09/11 03:36:38;;;;;;;10.00;9.20;;;17.90;99.90;;;;;;4871946;29;20193;-92
2021/09/11 03:39:04;;;;;;;9.40;8.50;;;17.80;99.90;;;;;;4866520;29;20201;-90
2021/09/11 03:41:30;;;;;;;9.87;9.00;;;17.80;99.90;;;;;;4868461;29;20647;-91
2021/09/11 03:43:55;;;;;;;9.23;8.33;;;17.80;99.90;;;;;;4869331;29;20653;-92
2021/09/11 03:46:21;;;;;;;9.40;8.50;;;17.80;99.90;;;;;;4887981;29;20225;-92
2021/09/11 03:48:47;;;;;;;10.30;9.40;;;17.80;99.90;;;;;;4867895;29;20390;-92
2021/09/11 03:51:16;;;;;;;9.50;8.70;;;17.80;99.90;;;;;;4869134;29;20651;-91
2021/09/11 03:53:42;;;;;;;10.23;9.23;;;17.80;99.90;;;;;;4869482;29;20266;-90
2021/09/11 03:56:08;;;;;;;9.80;9.00;;;17.70;99.90;;;;;;4866571;29;20531;-90
2021/09/11 03:58:34;;;;;;;9.67;8.87;;;17.60;99.90;;;;;;4868684;29;20486;-90
2021/09/11 04:01:01;;;;;;;10.97;9.97;;;17.60;99.90;;;;;;4868536;29;20690;-91
2021/09/11 04:03:32;;;;;;;10.83;9.83;;;17.50;99.90;;;;;;4867836;29;20264;-90
2021/09/11 04:05:59;;;;;;;10.33;9.53;;;17.40;99.90;;;;;;4867878;29;21401;-90
2021/09/11 04:08:25;;;;;;;10.33;9.43;;;17.40;99.90;;;;;;4868163;29;20482;-89
2021/09/11 04:10:52;;;;;;;10.53;9.57;;;17.40;99.90;;;;;;4873042;29;20450;-90
2021/09/11 04:13:18;;;;;;;11.90;10.80;;;17.40;99.90;;;;;;4886143;29;20192;-89
2021/09/11 04:15:43;;;;;;;12.57;11.30;;;17.20;99.90;;;;;;4868815;29;20459;-90
2021/09/11 04:18:15;;;;;;;11.63;10.60;;;17.10;99.90;;;;;;4865625;29;20241;-91
2021/09/11 04:20:49;;;;;;;13.07;11.77;;;17.10;99.90;;;;;;4865403;29;20264;-90
2021/09/11 04:23:48;;;;;;;11.20;10.20;;;17.10;99.90;;;;;;4869959;29;20458;-90
2021/09/11 04:26:13;;;;;;;12.37;11.17;;;17.00;99.90;;;;;;4864289;29;20481;-91
2021/09/11 04:28:40;;;;;;;12.43;11.23;;;17.10;99.90;;;;;;4868015;29;20481;-92
2021/09/11 04:31:07;;;;;;;11.67;10.67;;;17.10;99.90;;;;;;4865123;29;20680;-91
2021/09/11 04:33:33;;;;;;;12.00;10.80;;;17.10;99.90;;;;;;4864941;29;20522;-92
2021/09/11 04:36:02;;;;;;;11.00;10.00;;;17.00;99.90;;;;;;4885652;29;20462;-90
2021/09/11 04:38:31;;;;;;;11.30;10.27;;;17.00;99.90;;;;;;4866773;29;20769;-91
2021/09/11 04:40:57;;;;;;;11.40;10.40;;;17.00;99.90;;;;;;4894146;29;20601;-90
2021/09/11 04:43:22;;;;;;;11.60;10.47;;;17.00;99.90;;;;;;4867747;29;20265;-89
2021/09/11 04:45:48;;;;;;;11.80;10.70;;;16.90;99.90;;;;;;4866160;29;20256;-89
2021/09/11 04:48:14;;;;;;;11.33;10.10;;;16.80;99.90;;;;;;4869530;29;20225;-90
2021/09/11 04:50:47;;;;;;;11.57;10.53;;;16.70;99.90;;;;;;4873744;29;20362;-89
2021/09/11 04:53:18;;;;;;;11.90;10.20;;;16.70;99.90;;;;;;4869779;29;20454;-93
2021/09/11 04:55:44;;;;;;;10.93;9.93;;;16.70;99.90;;;;;;4864960;29;20561;-90
2021/09/11 04:58:11;;;;;;;11.30;10.20;;;16.70;99.90;;;;;;4868185;29;20552;-91
2021/09/11 05:00:36;;;;;;;10.63;9.53;;;16.70;99.90;;;;;;4878196;29;20818;-89
2021/09/11 05:03:02;;;;;;;10.83;9.73;;;16.70;99.90;;;;;;4867460;29;20470;-89
2021/09/11 05:05:28;;;;;;;10.37;9.50;;;16.70;99.90;;;;;;4866632;29;20273;-90
2021/09/11 05:08:07;;;;;;;12.27;11.10;;;16.70;99.90;;;;;;4884455;29;20202;-89
2021/09/11 05:10:37;;;;;;;10.77;9.77;;;16.70;99.90;;;;;;4864192;29;20213;-89
2021/09/11 05:13:08;;;;;;;10.40;9.50;;;16.70;99.90;;;;;;4881064;29;21143;-89
2021/09/11 05:15:34;;;;;;;11.57;10.13;;;16.70;99.90;;;;;;4878891;29;20449;-89
2021/09/11 05:17:59;;;;;;;11.00;10.00;;;16.80;99.90;;;;;;4867681;29;20450;-90
2021/09/11 05:20:25;;;;;;;10.40;9.50;;;16.80;99.90;;;;;;4860349;29;20228;-90
2021/09/11 05:22:51;;;;;;;10.80;9.80;;;16.80;99.90;;;;;;4863213;29;20716;-89
2021/09/11 05:25:16;;;;;;;10.47;9.57;;;16.80;99.90;;;;;;4862786;29;20222;-92
2021/09/11 05:27:45;;;;;;;10.97;9.97;;;16.80;99.90;;;;;;4870394;29;20197;-91
2021/09/11 05:30:11;;;;;;;10.93;9.93;;;16.90;99.90;;;;;;4866449;29;20715;-92
2021/09/11 05:32:48;;;;;;;10.80;9.90;;;16.80;99.90;;;;;;4868145;29;20458;-93
2021/09/11 05:35:14;;;;;;;12.43;11.27;;;16.80;99.90;;;;;;4864439;29;20650;-93
2021/09/11 05:37:40;;;;;;;10.53;9.60;;;16.80;99.90;;;;;;4884259;29;20557;-94
2021/09/11 05:42:38;;;;;;;11.40;10.30;;;16.90;99.90;;;;;;4869298;29;20486;-94
2021/09/11 05:45:05;;;;;;;11.73;10.80;;;17.00;99.90;;;;;;4870001;29;20485;-95
2021/09/11 05:47:33;;;;;;;11.40;10.33;;;16.90;99.90;;;;;;4865598;29;20214;-94
2021/09/11 05:49:59;;;;;;;12.13;10.97;;;17.00;99.90;;;;;;4881797;29;20522;-95
2021/09/11 05:52:26;;;;;;;11.70;10.70;;;16.90;99.90;;;;;;4870846;29;20645;-93
2021/09/11 05:54:52;;;;;;;11.30;10.30;;;16.90;99.90;;;;;;4868907;29;20460;-94
2021/09/11 05:57:34;;;;;;;11.97;10.80;;;17.00;99.90;;;;;;4868168;29;20470;-92
2021/09/11 06:00:01;;;;;;;12.43;11.13;;;17.00;99.90;;;;;;4870929;29;20257;-93
2021/09/11 06:02:27;;;;;;;10.77;9.60;;;17.00;99.90;;;;;;4868509;29;20549;-96
2021/09/11 06:04:53;;;;;;;12.47;11.07;;;17.00;99.90;;;;;;4870003;29;20549;-94
2021/09/11 06:07:22;;;;;;;12.07;10.87;;;17.00;99.90;;;;;;4866821;29;20706;-92
2021/09/11 06:09:48;;;;;;;10.93;10.00;;;16.90;99.90;;;;;;4865773;29;20238;-93
2021/09/11 06:12:31;;;;;;;11.47;10.27;;;16.90;99.90;;;;;;4867548;29;20488;-94
2021/09/11 06:17:29;;;;;;;11.50;10.50;;;16.80;99.90;;;;;;4867707;29;20886;-94
2021/09/11 06:19:58;;;;;;;13.07;10.60;;;16.90;99.90;;;;;;4866062;29;20469;-96
2021/09/11 06:22:51;;;;;;;11.70;10.60;;;16.80;99.90;;;;;;4866928;29;20533;-94
2021/09/11 06:25:16;;;;;;;11.50;10.30;;;16.90;99.90;;;;;;4875331;29;21149;-95
2021/09/11 06:27:46;;;;;;;10.50;9.60;;;16.90;99.90;;;;;;4868869;29;20454;-95
2021/09/11 06:30:18;;;;;;;10.23;9.30;;;17.00;99.90;;;;;;4862209;29;20197;-91
2021/09/11 06:32:51;;;;;;;11.30;10.20;;;17.00;99.90;;;;;;4862105;29;20453;-93
2021/09/11 06:35:17;;;;;;;11.30;10.20;;;16.90;99.90;;;;;;4860841;29;20454;-91
2021/09/11 06:37:43;;;;;;;11.43;10.30;;;17.10;99.90;;;;;;4863609;29;20482;-93
2021/09/11 06:40:08;;;;;;;10.70;9.60;;;17.10;99.90;;;;;;4860041;29;20450;-87
2021/09/11 06:42:34;;;;;;;9.90;9.03;;;17.20;99.90;;;;;;4861565;29;20249;-87
2021/09/11 06:45:00;;;;;;;9.97;9.07;;;17.30;99.90;;;;;;4860827;29;21249;-87
2021/09/11 06:47:26;;;;;;;11.03;9.97;;;17.20;99.90;;;;;;4862901;29;20224;-87
2021/09/11 06:49:51;;;;;;;10.30;9.30;;;17.20;99.90;;;;;;4875323;29;20676;-87
2021/09/11 06:52:17;;;;;;;10.37;9.37;;;17.20;99.90;;;;;;4865113;29;20224;-88
2021/09/11 06:54:45;;;;;;;9.57;8.77;;;17.10;99.90;;;;;;4875765;29;20222;-89
2021/09/11 06:57:11;;;;;;;10.77;9.70;;;17.10;99.90;;;;;;4864031;29;20504;-88
2021/09/11 06:59:36;;;;;;;12.67;8.83;;;17.10;99.90;;;;;;4858690;29;20450;-86
2021/09/11 07:02:02;;;;;;;10.20;9.10;;;17.20;99.90;;;;;;4858481;29;20379;-88
2021/09/11 07:04:28;;;;;;;10.13;9.13;;;17.20;99.90;;;;;;4861989;29;20709;-91
2021/09/11 07:06:53;;;;;;;8.87;8.13;;;17.30;99.90;;;;;;4864134;29;20235;-92
2021/09/11 07:09:19;;;;;;;9.73;8.90;;;17.50;99.90;;;;;;4863701;29;20201;-90
2021/09/11 07:11:45;;;;;;;9.03;7.97;;;17.60;99.90;;;;;;4880342;29;20241;-89
2021/09/11 07:14:10;;;;;;;8.93;8.23;;;17.80;99.90;;;;;;4861693;29;20193;-90
2021/09/11 07:16:39;;;;;;;8.33;7.63;;;17.90;99.90;;;;;;4864994;29;20385;-91
2021/09/11 07:19:04;;;;;;;8.53;7.67;;;17.90;99.90;;;;;;4864812;29;21742;-87
2021/09/11 07:21:30;;;;;;;7.60;7.00;;;18.00;99.90;;;;;;4859170;29;21852;-89
2021/09/11 07:23:55;;;;;;;8.53;7.83;;;18.20;99.90;;;;;;4850859;29;20324;-88
2021/09/11 07:26:21;;;;;;;7.97;7.30;;;18.20;99.90;;;;;;4857889;29;20669;-89
2021/09/11 07:28:49;;;;;;;7.53;6.93;;;18.20;99.90;;;;;;4857957;29;20190;-89
2021/09/11 07:31:15;;;;;;;7.60;6.90;;;18.20;99.90;;;;;;4859278;29;20271;-86
2021/09/11 07:33:42;;;;;;;8.27;7.23;;;18.20;99.90;;;;;;4856417;29;21093;-88
2021/09/11 07:36:11;;;;;;;8.43;7.67;;;18.10;99.90;;;;;;4859440;29;20458;-88
2021/09/11 07:38:37;;;;;;;8.67;7.80;;;18.10;99.90;;;;;;4860253;29;20447;-89
2021/09/11 07:41:04;;;;;;;8.00;7.30;;;18.10;99.90;;;;;;4860455;29;20927;-89
2021/09/11 07:43:29;;;;;;;7.40;6.70;;;18.20;99.90;;;;;;4856146;29;20809;-89
2021/09/11 07:45:55;;;;;;;8.27;7.57;;;18.30;99.90;;;;;;4876259;29;20490;-89
2021/09/11 07:48:21;;;;;;;7.40;6.80;;;18.30;99.90;;;;;;4861469;29;20593;-89
2021/09/11 07:50:47;;;;;;;7.20;6.70;;;18.30;99.90;;;;;;4874900;29;20465;-92
2021/09/11 07:53:15;;;;;;;7.57;6.97;;;18.50;99.90;;;;;;4862922;29;20203;-93
2021/09/11 07:55:44;;;;;;;6.67;6.17;;;18.50;99.90;;;;;;4864411;29;20671;-93
2021/09/11 07:58:44;;;;;;;18.50;17.03;;;18.70;99.90;;;;;;4866091;29;20481;-93
2021/09/11 08:01:14;;;;;;;29.57;27.03;;;18.90;99.90;;;;;;4864836;29;20460;-95
2021/09/11 08:03:40;;;;;;;6.00;5.50;;;19.20;99.90;;;;;;4877082;29;20557;-92
2021/09/11 08:06:12;;;;;;;5.80;5.40;;;19.50;99.90;;;;;;4862711;29;20485;-91
2021/09/11 08:08:41;;;;;;;5.90;5.40;;;19.60;99.90;;;;;;4880704;29;20257;-93
2021/09/11 08:11:09;;;;;;;6.20;5.63;;;19.60;99.90;;;;;;4868326;29;20648;-91
2021/09/11 08:13:39;;;;;;;5.37;4.87;;;19.60;99.90;;;;;;4862435;29;20445;-93
2021/09/11 08:16:06;;;;;;;6.07;5.57;;;19.30;99.90;;;;;;4861132;29;20934;-95
2021/09/11 08:18:32;;;;;;;5.73;5.33;;;19.40;99.90;;;;;;4859182;29;20461;-91
2021/09/11 08:20:58;;;;;;;5.13;4.73;;;19.50;99.90;;;;;;4874068;29;20833;-94
2021/09/11 08:23:25;;;;;;;6.57;5.90;;;19.60;99.90;;;;;;4859794;29;20627;-91
2021/09/11 08:25:53;;;;;;;5.57;5.07;;;19.70;99.90;;;;;;4875094;29;20481;-90
2021/09/11 08:28:25;;;;;;;6.13;5.53;;;19.70;99.90;;;;;;4860840;29;20438;-90
2021/09/11 08:30:51;;;;;;;6.20;5.70;;;19.90;99.90;;;;;;4858154;29;20470;-88
2021/09/11 08:33:17;;;;;;;5.70;5.20;;;20.20;99.90;;;;;;4874097;29;20510;-91
2021/09/11 08:35:43;;;;;;;6.53;5.93;;;20.00;99.90;;;;;;4876420;29;20217;-88
2021/09/11 08:38:09;;;;;;;6.00;5.50;;;19.90;99.90;;;;;;4858674;29;20465;-91
2021/09/11 08:40:38;;;;;;;6.20;5.70;;;20.20;99.90;;;;;;4857905;29;20469;-89
2021/09/11 08:43:13;;;;;;;5.90;5.40;;;20.20;99.90;;;;;;4861443;29;20504;-90
2021/09/11 08:45:41;;;;;;;6.00;5.43;;;20.30;99.90;;;;;;4858306;29;20513;-89
2021/09/11 08:48:13;;;;;;;6.23;5.73;;;20.30;99.90;;;;;;4860335;29;20453;-89
2021/09/11 08:50:45;;;;;;;5.33;4.83;;;20.30;99.90;;;;;;4859002;29;20253;-89
2021/09/11 08:53:16;;;;;;;5.87;5.43;;;20.30;99.90;;;;;;4874265;29;20470;-90
2021/09/11 08:55:42;;;;;;;6.43;5.60;;;20.40;99.90;;;;;;4858646;29;20545;-90
2021/09/11 08:58:11;;;;;;;6.97;5.03;;;20.50;99.90;;;;;;4858809;29;20470;-93
2021/09/11 09:00:46;;;;;;;5.30;4.90;;;20.50;99.90;;;;;;4859388;29;20463;-89
2021/09/11 09:03:34;;;;;;;6.40;5.87;;;20.60;99.90;;;;;;4856840;29;20565;-91
2021/09/11 09:06:42;;;;;;;5.53;5.03;;;20.50;99.90;;;;;;4861008;29;20501;-94
2021/09/11 09:09:21;;;;;;;5.40;4.97;;;20.40;99.90;;;;;;4882809;29;20454;-95
2021/09/11 09:45:30;;;;;;;4.53;4.23;;;23.00;99.90;;;;;;4906946;29;20581;-96
2021/09/11 09:48:17;;;;;;;4.03;3.73;;;22.80;99.90;;;;;;4909618;29;20455;-96
2021/09/11 10:09:14;;;;;;;5.13;4.73;;;22.50;99.90;;;;;;4922431;29;20492;-96
2021/09/11 10:11:51;;;;;;;4.77;4.37;;;22.90;99.90;;;;;;4918528;29;20464;-96
2021/09/11 10:14:31;;;;;;;4.90;4.50;;;22.70;99.90;;;;;;4917949;29;20559;-94
2021/09/11 10:17:06;;;;;;;5.20;4.80;;;22.50;99.90;;;;;;4903600;29;20470;-95
2021/09/11 10:22:22;;;;;;;5.20;4.70;;;22.00;99.90;;;;;;4920092;29;20455;-93
2021/09/11 10:25:08;;;;;;;4.87;4.53;;;22.00;99.90;;;;;;4904042;29;20534;-93
2021/09/11 10:27:49;;;;;;;4.30;4.00;;;22.10;99.90;;;;;;4898365;29;20475;-94
2021/09/11 10:30:32;;;;;;;4.20;3.90;;;22.50;99.90;;;;;;4914923;29;21358;-92
2021/09/11 10:33:09;;;;;;;4.37;3.97;;;23.50;99.90;;;;;;4899385;29;20546;-94
2021/09/11 10:35:49;;;;;;;4.03;3.73;;;24.40;99.90;;;;;;4902254;29;20447;-94
2021/09/11 10:38:42;;;;;;;6.80;3.80;;;24.50;99.90;;;;;;4899659;29;20834;-95
2021/09/11 11:22:54;;;;;;;3.13;2.83;;;25.10;99.90;;;;;;5429455;23;20476;-96
2021/09/11 11:25:39;;;;;;;3.50;3.20;;;25.70;99.00;;;;;;5032903;23;21649;-96
2021/09/11 11:30:54;;;;;;;3.03;2.83;;;25.60;98.80;;;;;;4940883;23;22351;-95
2021/09/11 11:33:23;;;;;;;3.00;2.80;;;25.60;99.90;;;;;;4906983;29;20456;-96
2021/09/11 11:36:03;;;;;;;3.10;2.87;;;25.60;98.50;;;;;;4917089;29;20958;-97
2021/09/11 11:38:29;;;;;;;3.70;2.70;;;25.00;98.90;;;;;;4902665;29;20487;-95
2021/09/11 11:43:39;;;;;;;3.73;3.00;;;24.00;99.90;;;;;;5155078;23;20242;-96
2021/09/11 11:46:07;;;;;;;2.93;2.73;;;23.70;99.90;;;;;;4908113;29;20531;-96
2021/09/11 11:49:03;;;;;;;2.87;2.67;;;23.40;99.90;;;;;;4943300;28;20462;-96
2021/09/11 11:59:24;;;;;;;3.20;2.90;;;20.80;99.90;;;;;;4942121;29;20456;-94
2021/09/11 12:01:53;;;;;;;2.60;2.40;;;20.20;99.90;;;;;;4920816;29;20459;-94
2021/09/11 12:04:47;;;;;;;3.57;3.27;;;19.70;99.90;;;;;;4935474;29;20463;-96
2021/09/11 12:07:42;;;;;;;3.67;2.40;;;19.30;99.90;;;;;;4921062;29;20520;-96
2021/09/11 12:10:22;;;;;;;4.27;2.63;;;19.30;99.90;;;;;;4923340;29;20447;-93
2021/09/11 12:15:39;;;;;;;3.80;2.53;;;19.00;99.90;;;;;;4935880;29;21098;-96
2021/09/11 12:18:20;;;;;;;4.13;3.63;;;19.00;99.90;;;;;;4911872;29;20451;-96
2021/09/11 12:20:52;;;;;;;5.33;3.77;;;18.80;99.90;;;;;;4928251;29;20467;-95
2021/09/11 12:23:27;;;;;;;4.33;3.93;;;18.60;99.90;;;;;;4911772;29;20452;-96
2021/09/11 12:26:04;;;;;;;4.20;3.90;;;18.60;99.90;;;;;;4929242;28;20482;-95
2021/09/11 12:28:45;;;;;;;5.13;4.20;;;18.70;99.90;;;;;;4912517;29;20451;-93
2021/09/11 12:31:20;;;;;;;6.47;5.33;;;18.70;99.90;;;;;;4910575;29;20458;-91
2021/09/11 12:33:52;;;;;;;5.77;4.30;;;18.70;99.90;;;;;;4909135;29;20447;-91
2021/09/11 12:36:40;;;;;;;3.60;3.30;;;18.80;99.90;;;;;;4906967;29;20448;-92
2021/09/11 12:39:08;;;;;;;3.17;2.97;;;19.10;99.90;;;;;;4906932;29;20451;-94
2021/09/11 12:41:39;;;;;;;4.17;3.60;;;19.40;99.90;;;;;;4909072;29;20436;-93
2021/09/11 12:44:05;;;;;;;4.00;3.63;;;19.80;99.90;;;;;;4909645;29;20451;-94
2021/09/11 12:46:39;;;;;;;3.03;2.77;;;20.20;99.90;;;;;;4914228;29;20542;-93
2021/09/11 12:49:09;;;;;;;3.60;2.90;;;20.80;99.90;;;;;;4910105;29;20501;-93
2021/09/11 12:51:39;;;;;;;3.23;2.90;;;21.70;99.90;;;;;;4904926;29;20459;-95
2021/09/11 12:54:05;;;;;;;3.23;2.87;;;22.40;99.90;;;;;;4912432;29;20451;-92
2021/09/11 12:56:32;;;;;;;2.23;2.03;;;22.80;99.90;;;;;;4904767;29;20449;-95
2021/09/11 12:59:04;;;;;;;2.17;2.00;;;22.80;99.90;;;;;;4908015;29;20439;-96
2021/09/11 13:01:39;;;;;;;1.53;1.43;;;22.70;99.90;;;;;;4912620;29;20452;-96
2021/09/11 13:04:06;;;;;;;2.23;2.03;;;22.90;99.90;;;;;;4920563;29;20444;-96
2021/09/11 13:06:33;;;;;;;1.93;1.83;;;23.20;99.90;;;;;;4920111;29;20498;-96
2021/09/11 13:09:01;;;;;;;2.67;2.13;;;23.50;99.90;;;;;;4908204;29;20458;-94
2021/09/11 13:11:27;;;;;;;2.07;1.90;;;23.80;99.90;;;;;;4901034;29;20493;-93
2021/09/11 13:13:59;;;;;;;1.83;1.60;;;24.30;99.90;;;;;;4906033;29;21040;-92
2021/09/11 13:16:25;;;;;;;1.70;1.60;;;24.80;99.90;;;;;;4904022;29;20203;-93
2021/09/11 13:18:55;;;;;;;1.67;1.57;;;25.10;99.90;;;;;;4882893;29;20443;-94
2021/09/11 13:21:21;;;;;;;1.90;1.80;;;24.60;99.90;;;;;;4899893;29;20286;-93
2021/09/11 13:23:49;;;;;;;2.00;1.90;;;24.80;99.90;;;;;;4917117;29;20435;-94
2021/09/11 13:26:18;;;;;;;2.20;2.00;;;25.20;99.90;;;;;;4904174;29;20282;-94
2021/09/11 13:28:51;;;;;;;1.70;1.60;;;25.20;99.90;;;;;;4902911;29;20481;-95
2021/09/11 13:31:19;;;;;;;1.53;1.43;;;25.30;99.90;;;;;;4903583;29;20451;-94
2021/09/11 13:33:48;;;;;;;1.67;1.57;;;25.40;99.90;;;;;;4903412;29;20480;-94
2021/09/11 13:36:18;;;;;;;1.70;1.60;;;25.60;99.90;;;;;;4904152;29;20474;-94
2021/09/11 13:38:45;;;;;;;1.77;1.67;;;25.60;99.90;;;;;;4921174;29;20439;-94
2021/09/11 13:41:14;;;;;;;1.50;1.40;;;25.20;99.90;;;;;;4902502;29;20466;-93
2021/09/11 13:43:43;;;;;;;1.50;1.40;;;25.80;99.90;;;;;;4906219;29;21528;-94
2021/09/11 13:46:09;;;;;;;1.50;1.40;;;26.10;99.90;;;;;;4903391;29;20482;-96
2021/09/11 13:48:37;;;;;;;1.40;1.40;;;26.10;99.90;;;;;;4907246;29;20543;-96
2021/09/11 13:51:03;;;;;;;1.70;1.60;;;26.10;99.90;;;;;;4902356;29;20471;-96
2021/09/11 13:53:33;;;;;;;1.40;1.30;;;26.00;99.90;;;;;;4905121;29;20451;-96
2021/09/11 13:55:59;;;;;;;1.30;1.20;;;26.30;99.90;;;;;;4903522;29;20460;-94
2021/09/11 13:58:25;;;;;;;1.80;1.70;;;27.00;99.60;;;;;;4907790;29;20562;-96
2021/09/11 14:00:59;;;;;;;2.20;2.00;;;27.30;99.00;;;;;;4903111;28;20468;-96
2021/09/11 14:03:25;;;;;;;1.50;1.40;;;27.80;98.40;;;;;;4902868;29;20724;-96
2021/09/11 14:05:51;;;;;;;2.10;2.00;;;27.80;99.10;;;;;;4904149;29;20467;-93
2021/09/11 14:08:17;;;;;;;1.80;1.70;;;27.00;99.20;;;;;;4903916;29;20223;-93
2021/09/11 14:10:48;;;;;;;3.40;1.53;;;26.30;99.90;;;;;;4915178;29;20456;-95
2021/09/11 14:13:16;;;;;;;2.30;2.10;;;27.30;99.90;;;;;;4916348;29;20458;-96
2021/09/11 14:15:43;;;;;;;2.00;1.80;;;27.10;99.10;;;;;;4909721;29;20458;-95
2021/09/11 14:18:10;;;;;;;2.07;1.80;;;26.20;99.30;;;;;;4917963;29;20527;-95
2021/09/11 14:36:09;;;;;;;2.40;2.30;;;25.70;99.90;;;;;;5264495;23;20501;-96
2021/09/11 14:38:47;;;;;;;2.30;2.10;;;25.50;99.90;;;;;;4921621;28;20514;-95
2021/09/11 14:41:16;;;;;;;2.70;2.50;;;24.60;99.90;;;;;;4917325;28;20500;-93
2021/09/11 14:43:42;;;;;;;2.60;2.40;;;24.50;99.90;;;;;;4920925;28;20489;-92
2021/09/11 14:46:09;;;;;;;2.80;2.20;;;25.00;99.90;;;;;;4917217;28;21156;-92
2021/09/11 14:48:36;;;;;;;2.50;2.40;;;25.10;99.90;;;;;;4919465;28;20458;-93
2021/09/11 14:51:02;;;;;;;2.43;2.10;;;24.90;99.90;;;;;;4918157;29;20493;-93
2021/09/11 14:53:31;;;;;;;2.43;2.23;;;25.20;99.90;;;;;;4928496;28;20479;-93
2021/09/11 14:55:57;;;;;;;2.10;2.00;;;25.50;99.90;;;;;;4907666;29;20755;-92
2021/09/11 14:58:25;;;;;;;2.50;2.30;;;25.90;99.90;;;;;;4919360;28;20517;-93
2021/09/11 15:00:51;;;;;;;2.10;1.90;;;27.70;98.90;;;;;;4921812;29;20448;-95
2021/09/11 15:03:33;;;;;;;1.87;1.77;;;30.00;95.90;;;;;;4934052;28;20994;-94